EZY38JU EGHQ-EGCC
Flight info
| Callsign | EZY38JU |
|---|---|
| Flight time | 0h 36m |
| Altitude | 33000 |
| Route | EPACE DCT ACCOP DCT MOCQO/N0457F320 P16 AXCIS |
| Aircraft | A20N/M-SDE2E3FGHIRWXY/LB1 |
Departure
| Time | 2026-04-25 19:51 |
|---|---|
| Airport | Cornwall Airport Newquay (EGHQ) |
Arrival
| Time | 2026-04-25 20:27 |
|---|---|
| Airport | Manchester Airport (EGCC) |
| Time | Latitude | Longitude | Altitude | Speed | Heading |
|---|---|---|---|---|---|
| 2026-04-25 19:38 | 50.44641 | -5.00374 | 331 ft | 0 kts | 125° |
| 2026-04-25 19:44 | 50.44646 | -5.00385 | 332 ft | 2 kts | 124° |
| 2026-04-25 19:44 | 50.44653 | -5.00408 | 334 ft | 2 kts | 93° |
| 2026-04-25 19:44 | 50.44650 | -5.00433 | 334 ft | 2 kts | 65° |
| 2026-04-25 19:44 | 50.44637 | -5.00448 | 330 ft | 2 kts | 349° |
| 2026-04-25 19:45 | 50.44621 | -5.00441 | 331 ft | 2 kts | 339° |
| 2026-04-25 19:45 | 50.44610 | -5.00423 | 332 ft | 2 kts | 295° |
| 2026-04-25 19:45 | 50.44606 | -5.00409 | 334 ft | 1 kts | 299° |
| 2026-04-25 19:45 | 50.44608 | -5.00414 | 333 ft | 2 kts | 301° |
| 2026-04-25 19:46 | 50.44623 | -5.00447 | 331 ft | 5 kts | 310° |
| 2026-04-25 19:46 | 50.44630 | -5.00459 | 330 ft | 0 kts | 314° |
| 2026-04-25 19:47 | 50.44631 | -5.00459 | 330 ft | 0 kts | 313° |
| 2026-04-25 19:48 | 50.44631 | -5.00460 | 330 ft | 0 kts | 305° |
| 2026-04-25 19:48 | 50.44652 | -5.00521 | 331 ft | 11 kts | 298° |
| 2026-04-25 19:48 | 50.44697 | -5.00645 | 329 ft | 15 kts | 300° |
| 2026-04-25 19:49 | 50.44755 | -5.00798 | 324 ft | 18 kts | 301° |
| 2026-04-25 19:49 | 50.44775 | -5.00851 | 323 ft | 16 kts | 300° |
| 2026-04-25 19:49 | 50.44785 | -5.01096 | 319 ft | 14 kts | 233° |
| 2026-04-25 19:49 | 50.44702 | -5.01165 | 318 ft | 9 kts | 172° |
| 2026-04-25 19:50 | 50.44601 | -5.00929 | 322 ft | 52 kts | 121° |
| 2026-04-25 19:50 | 50.44288 | -5.00102 | 355 ft | 123 kts | 120° |
| 2026-04-25 19:50 | 50.43773 | -4.98718 | 653 ft | 155 kts | 119° |
| 2026-04-25 19:51 | 50.43194 | -4.97186 | 1163 ft | 176 kts | 120° |
| 2026-04-25 19:51 | 50.42573 | -4.95489 | 1898 ft | 179 kts | 116° |
| 2026-04-25 19:51 | 50.42453 | -4.93515 | 2405 ft | 198 kts | 74° |
| 2026-04-25 19:51 | 50.43301 | -4.91704 | 2814 ft | 216 kts | 41° |
| 2026-04-25 19:52 | 50.44585 | -4.90339 | 3254 ft | 239 kts | 32° |
| 2026-04-25 19:52 | 50.46091 | -4.88893 | 3835 ft | 261 kts | 33° |
| 2026-04-25 19:52 | 50.47595 | -4.87219 | 4796 ft | 267 kts | 38° |
| 2026-04-25 19:52 | 50.49030 | -4.85317 | 5847 ft | 271 kts | 43° |
| 2026-04-25 19:53 | 50.50374 | -4.83267 | 6937 ft | 274 kts | 46° |
| 2026-04-25 19:53 | 50.51690 | -4.81072 | 7969 ft | 278 kts | 48° |
| 2026-04-25 19:53 | 50.53002 | -4.78776 | 8973 ft | 283 kts | 49° |
| 2026-04-25 19:53 | 50.54317 | -4.76431 | 9977 ft | 288 kts | 49° |
| 2026-04-25 19:54 | 50.55667 | -4.74017 | 10730 ft | 301 kts | 49° |
| 2026-04-25 19:54 | 50.57098 | -4.71473 | 11112 ft | 327 kts | 49° |
| 2026-04-25 19:54 | 50.58676 | -4.68687 | 11500 ft | 350 kts | 48° |
| 2026-04-25 19:54 | 50.59230 | -4.67713 | 11688 ft | 355 kts | 48° |
| 2026-04-25 19:55 | 50.61465 | -4.63793 | 12714 ft | 367 kts | 48° |
| 2026-04-25 19:55 | 50.63766 | -4.59764 | 13852 ft | 375 kts | 48° |
| 2026-04-25 19:55 | 50.64936 | -4.57714 | 14369 ft | 379 kts | 48° |
| 2026-04-25 19:55 | 50.67303 | -4.53561 | 15359 ft | 387 kts | 48° |
| 2026-04-25 19:56 | 50.68502 | -4.51453 | 15858 ft | 390 kts | 48° |
| 2026-04-25 19:56 | 50.70325 | -4.48245 | 16600 ft | 396 kts | 48° |
| 2026-04-25 19:56 | 50.72183 | -4.44970 | 17346 ft | 401 kts | 48° |
| 2026-04-25 19:56 | 50.74065 | -4.41647 | 18083 ft | 407 kts | 48° |
| 2026-04-25 19:57 | 50.75943 | -4.38327 | 18733 ft | 412 kts | 47° |
| 2026-04-25 19:57 | 50.77869 | -4.34918 | 19111 ft | 413 kts | 47° |
| 2026-04-25 19:57 | 50.79762 | -4.31563 | 19245 ft | 415 kts | 47° |
| 2026-04-25 19:57 | 50.81697 | -4.28127 | 19639 ft | 420 kts | 47° |
| 2026-04-25 19:58 | 50.83643 | -4.24668 | 20303 ft | 423 kts | 47° |
| 2026-04-25 19:58 | 50.85620 | -4.21150 | 20970 ft | 426 kts | 47° |
| 2026-04-25 19:58 | 50.87575 | -4.17666 | 21588 ft | 429 kts | 47° |
| 2026-04-25 19:58 | 50.89577 | -4.14093 | 22218 ft | 433 kts | 47° |
| 2026-04-25 19:59 | 50.91580 | -4.10514 | 22870 ft | 436 kts | 47° |
| 2026-04-25 19:59 | 50.93598 | -4.06901 | 23494 ft | 439 kts | 48° |
| 2026-04-25 19:59 | 50.95642 | -4.03238 | 24044 ft | 443 kts | 48° |
| 2026-04-25 19:59 | 50.97674 | -3.99590 | 24527 ft | 446 kts | 48° |
| 2026-04-25 20:00 | 50.99741 | -3.95875 | 24972 ft | 450 kts | 48° |
| 2026-04-25 20:00 | 51.01120 | -3.93393 | 25149 ft | 450 kts | 48° |
| 2026-04-25 20:00 | 51.03896 | -3.88390 | 25223 ft | 451 kts | 48° |
| 2026-04-25 20:00 | 51.05947 | -3.84686 | 25225 ft | 451 kts | 48° |
| 2026-04-25 20:01 | 51.10108 | -3.77156 | 25230 ft | 452 kts | 48° |
| 2026-04-25 20:01 | 51.12185 | -3.73390 | 25222 ft | 452 kts | 48° |
| 2026-04-25 20:01 | 51.14260 | -3.69620 | 25226 ft | 451 kts | 48° |
| 2026-04-25 20:02 | 51.16301 | -3.65908 | 25218 ft | 451 kts | 48° |
| 2026-04-25 20:02 | 51.18371 | -3.62137 | 25218 ft | 452 kts | 48° |
| 2026-04-25 20:02 | 51.20439 | -3.58365 | 25218 ft | 451 kts | 48° |
| 2026-04-25 20:02 | 51.22515 | -3.54573 | 25215 ft | 451 kts | 47° |
| 2026-04-25 20:03 | 51.24840 | -3.51224 | 25211 ft | 449 kts | 32° |
| 2026-04-25 20:03 | 51.27615 | -3.49156 | 25215 ft | 445 kts | 14° |
| 2026-04-25 20:03 | 51.30648 | -3.48382 | 25218 ft | 442 kts | 1° |
| 2026-04-25 20:03 | 51.33733 | -3.48306 | 25212 ft | 441 kts | 357° |
| 2026-04-25 20:04 | 51.36825 | -3.48366 | 25210 ft | 441 kts | 358° |
| 2026-04-25 20:04 | 51.39861 | -3.48308 | 25211 ft | 441 kts | 360° |
| 2026-04-25 20:04 | 51.42940 | -3.48062 | 25212 ft | 442 kts | 2° |
| 2026-04-25 20:04 | 51.46003 | -3.47648 | 25214 ft | 442 kts | 4° |
| 2026-04-25 20:05 | 51.49041 | -3.47120 | 25211 ft | 442 kts | 5° |
| 2026-04-25 20:05 | 51.52106 | -3.46520 | 25213 ft | 442 kts | 5° |
| 2026-04-25 20:05 | 51.55165 | -3.45892 | 25216 ft | 442 kts | 5° |
| 2026-04-25 20:05 | 51.58173 | -3.45268 | 25215 ft | 442 kts | 5° |
| 2026-04-25 20:06 | 51.61239 | -3.44635 | 25240 ft | 442 kts | 5° |
| 2026-04-25 20:06 | 51.64300 | -3.44010 | 25628 ft | 445 kts | 5° |
| 2026-04-25 20:06 | 51.67392 | -3.43384 | 26062 ft | 446 kts | 5° |
| 2026-04-25 20:06 | 51.70493 | -3.42760 | 26219 ft | 450 kts | 5° |
| 2026-04-25 20:07 | 51.73611 | -3.42138 | 26228 ft | 464 kts | 5° |
| 2026-04-25 20:07 | 51.76871 | -3.41490 | 26226 ft | 476 kts | 5° |
| 2026-04-25 20:07 | 51.80197 | -3.40825 | 26233 ft | 481 kts | 5° |
| 2026-04-25 20:07 | 51.83517 | -3.40157 | 26234 ft | 481 kts | 5° |
| 2026-04-25 20:08 | 51.86808 | -3.39492 | 26233 ft | 481 kts | 5° |
| 2026-04-25 20:08 | 51.90133 | -3.38820 | 26231 ft | 482 kts | 5° |
| 2026-04-25 20:08 | 51.93477 | -3.38189 | 26225 ft | 484 kts | 3° |
| 2026-04-25 20:08 | 51.96827 | -3.37783 | 26219 ft | 484 kts | 1° |
| 2026-04-25 20:09 | 52.00264 | -3.37518 | 26219 ft | 483 kts | 360° |
| 2026-04-25 20:09 | 52.03571 | -3.37326 | 26220 ft | 483 kts | 359° |
| 2026-04-25 20:09 | 52.06896 | -3.37145 | 26226 ft | 482 kts | 360° |
| 2026-04-25 20:09 | 52.10249 | -3.36952 | 26013 ft | 481 kts | 360° |
| 2026-04-25 20:10 | 52.12468 | -3.36816 | 25852 ft | 482 kts | 0° |
| 2026-04-25 20:10 | 52.16943 | -3.36520 | 25535 ft | 484 kts | 0° |
| 2026-04-25 20:10 | 52.20311 | -3.36284 | 25218 ft | 484 kts | 0° |
| 2026-04-25 20:10 | 52.23687 | -3.36039 | 24841 ft | 485 kts | 1° |
| 2026-04-25 20:11 | 52.27070 | -3.35791 | 24461 ft | 486 kts | 1° |
| 2026-04-25 20:11 | 52.30452 | -3.35541 | 24098 ft | 485 kts | 1° |
| 2026-04-25 20:11 | 52.33786 | -3.35295 | 23822 ft | 484 kts | 1° |
| 2026-04-25 20:11 | 52.37148 | -3.35046 | 23500 ft | 481 kts | 1° |
| 2026-04-25 20:12 | 52.40494 | -3.34798 | 23178 ft | 479 kts | 1° |
| 2026-04-25 20:12 | 52.43817 | -3.34553 | 22844 ft | 477 kts | 1° |
| 2026-04-25 20:12 | 52.47135 | -3.34307 | 22475 ft | 474 kts | 1° |
| 2026-04-25 20:12 | 52.49322 | -3.34145 | 22233 ft | 473 kts | 1° |
| 2026-04-25 20:13 | 52.53675 | -3.33823 | 21753 ft | 470 kts | 1° |
| 2026-04-25 20:13 | 52.56938 | -3.33582 | 21392 ft | 467 kts | 1° |
| 2026-04-25 20:13 | 52.60195 | -3.33341 | 21044 ft | 465 kts | 1° |
| 2026-04-25 20:13 | 52.63377 | -3.32836 | 20691 ft | 466 kts | 11° |
| 2026-04-25 20:14 | 52.66473 | -3.31257 | 20352 ft | 465 kts | 18° |
| 2026-04-25 20:14 | 52.69507 | -3.29416 | 20019 ft | 463 kts | 19° |
| 2026-04-25 20:14 | 52.71514 | -3.28176 | 19791 ft | 462 kts | 19° |
| 2026-04-25 20:14 | 52.73798 | -3.26772 | 19535 ft | 461 kts | 18° |
| 2026-04-25 20:15 | 52.76774 | -3.24958 | 19210 ft | 459 kts | 18° |
| 2026-04-25 20:15 | 52.79770 | -3.23143 | 18877 ft | 457 kts | 18° |
| 2026-04-25 20:15 | 52.82764 | -3.21337 | 18549 ft | 455 kts | 18° |
| 2026-04-25 20:15 | 52.85688 | -3.19575 | 18136 ft | 443 kts | 18° |
| 2026-04-25 20:16 | 52.88444 | -3.17886 | 17729 ft | 427 kts | 19° |
| 2026-04-25 20:16 | 52.91106 | -3.16680 | 17330 ft | 409 kts | 4° |
| 2026-04-25 20:16 | 52.93881 | -3.16481 | 16863 ft | 391 kts | 359° |
| 2026-04-25 20:16 | 52.96536 | -3.16430 | 16360 ft | 371 kts | 2° |
| 2026-04-25 20:17 | 52.98976 | -3.15496 | 15783 ft | 360 kts | 22° |
| 2026-04-25 20:17 | 53.01031 | -3.13228 | 15176 ft | 350 kts | 44° |
| 2026-04-25 20:17 | 53.02412 | -3.09988 | 14575 ft | 341 kts | 64° |
| 2026-04-25 20:17 | 53.03312 | -3.06393 | 13973 ft | 332 kts | 69° |
| 2026-04-25 20:18 | 53.04110 | -3.02834 | 13323 ft | 324 kts | 70° |
| 2026-04-25 20:18 | 53.04882 | -2.99345 | 12672 ft | 318 kts | 70° |
| 2026-04-25 20:18 | 53.05628 | -2.95963 | 12036 ft | 312 kts | 70° |
| 2026-04-25 20:18 | 53.06369 | -2.92595 | 11414 ft | 306 kts | 70° |
| 2026-04-25 20:19 | 53.07095 | -2.89302 | 10826 ft | 301 kts | 70° |
| 2026-04-25 20:19 | 53.07812 | -2.86047 | 10247 ft | 296 kts | 70° |
| 2026-04-25 20:19 | 53.08516 | -2.82852 | 9625 ft | 291 kts | 70° |
| 2026-04-25 20:19 | 53.09336 | -2.79842 | 9052 ft | 286 kts | 62° |
| 2026-04-25 20:20 | 53.10302 | -2.76972 | 8529 ft | 278 kts | 60° |
| 2026-04-25 20:20 | 53.11244 | -2.74252 | 8059 ft | 271 kts | 60° |
| 2026-04-25 20:20 | 53.11882 | -2.72420 | 7684 ft | 269 kts | 60° |
| 2026-04-25 20:20 | 53.12481 | -2.70697 | 7292 ft | 269 kts | 60° |
| 2026-04-25 20:21 | 53.13423 | -2.67998 | 6657 ft | 269 kts | 60° |
| 2026-04-25 20:21 | 53.14367 | -2.65299 | 5986 ft | 269 kts | 60° |
| 2026-04-25 20:21 | 53.15310 | -2.62615 | 5335 ft | 268 kts | 60° |
| 2026-04-25 20:21 | 53.16242 | -2.59991 | 4708 ft | 266 kts | 60° |
| 2026-04-25 20:22 | 53.17185 | -2.57356 | 4187 ft | 259 kts | 60° |
| 2026-04-25 20:22 | 53.17471 | -2.56575 | 4088 ft | 255 kts | 58° |
| 2026-04-25 20:22 | 53.19660 | -2.53875 | 3682 ft | 234 kts | 19° |
| 2026-04-25 20:22 | 53.21178 | -2.53141 | 3460 ft | 219 kts | 15° |
| 2026-04-25 20:23 | 53.22561 | -2.52250 | 3175 ft | 211 kts | 33° |
| 2026-04-25 20:23 | 53.23660 | -2.50642 | 2994 ft | 210 kts | 50° |
| 2026-04-25 20:23 | 53.24575 | -2.48731 | 2893 ft | 210 kts | 53° |
| 2026-04-25 20:23 | 53.25489 | -2.46839 | 2630 ft | 209 kts | 51° |
| 2026-04-25 20:24 | 53.26396 | -2.45003 | 2360 ft | 205 kts | 52° |
| 2026-04-25 20:24 | 53.27293 | -2.43166 | 2082 ft | 201 kts | 52° |
| 2026-04-25 20:24 | 53.28161 | -2.41384 | 1806 ft | 194 kts | 52° |
| 2026-04-25 20:24 | 53.28972 | -2.39723 | 1564 ft | 173 kts | 52° |
| 2026-04-25 20:25 | 53.29456 | -2.38730 | 1404 ft | 161 kts | 52° |
| 2026-04-25 20:25 | 53.30331 | -2.36933 | 1124 ft | 141 kts | 53° |
| 2026-04-25 20:25 | 53.30917 | -2.35730 | 943 ft | 137 kts | 52° |
| 2026-04-25 20:25 | 53.31292 | -2.34959 | 822 ft | 137 kts | 52° |
| 2026-04-25 20:26 | 53.31911 | -2.33688 | 644 ft | 138 kts | 52° |
| 2026-04-25 20:26 | 53.32515 | -2.32455 | 426 ft | 138 kts | 52° |
| 2026-04-25 20:26 | 53.33135 | -2.31217 | 278 ft | 138 kts | 53° |
| 2026-04-25 20:26 | 53.33690 | -2.30046 | 210 ft | 125 kts | 51° |
| 2026-04-25 20:27 | 53.34127 | -2.29138 | 223 ft | 73 kts | 51° |
| 2026-04-25 20:27 | 53.34339 | -2.28715 | 221 ft | 22 kts | 44° |
| 2026-04-25 20:27 | 53.34385 | -2.28650 | 222 ft | 11 kts | 38° |
| 2026-04-25 20:27 | 53.34499 | -2.28541 | 227 ft | 24 kts | 24° |
| 2026-04-25 20:28 | 53.34644 | -2.28443 | 231 ft | 21 kts | 22° |
| 2026-04-25 20:28 | 53.34749 | -2.28321 | 233 ft | 16 kts | 51° |
| 2026-04-25 20:28 | 53.34815 | -2.28183 | 235 ft | 15 kts | 52° |
| 2026-04-25 20:28 | 53.34877 | -2.28052 | 236 ft | 14 kts | 51° |
| 2026-04-25 20:29 | 53.34934 | -2.27936 | 238 ft | 12 kts | 51° |
| 2026-04-25 20:29 | 53.34990 | -2.27821 | 240 ft | 14 kts | 51° |
| 2026-04-25 20:29 | 53.35052 | -2.27694 | 242 ft | 14 kts | 51° |
| 2026-04-25 20:29 | 53.35110 | -2.27575 | 243 ft | 13 kts | 51° |
| 2026-04-25 20:30 | 53.35168 | -2.27455 | 245 ft | 14 kts | 51° |
| 2026-04-25 20:30 | 53.35226 | -2.27334 | 247 ft | 13 kts | 51° |
| 2026-04-25 20:30 | 53.35278 | -2.27229 | 249 ft | 11 kts | 46° |
| 2026-04-25 20:30 | 53.35321 | -2.27192 | 250 ft | 5 kts | 7° |
| 2026-04-25 20:31 | 53.35328 | -2.27191 | 251 ft | 0 kts | 4° |
| 2026-04-25 20:32 | 53.35334 | -2.27190 | 251 ft | 5 kts | 3° |
| 2026-04-25 20:32 | 53.35404 | -2.27232 | 256 ft | 12 kts | 328° |
| 2026-04-25 20:32 | 53.35464 | -2.27309 | 258 ft | 10 kts | 320° |
| 2026-04-25 20:33 | 53.35516 | -2.27383 | 258 ft | 11 kts | 320° |
| 2026-04-25 20:33 | 53.35572 | -2.27461 | 259 ft | 10 kts | 321° |
| 2026-04-25 20:33 | 53.35617 | -2.27521 | 259 ft | 0 kts | 321° |
| 2026-04-25 20:34 | 53.35622 | -2.27527 | 259 ft | 5 kts | 321° |
| 2026-04-25 20:34 | 53.35657 | -2.27573 | 259 ft | 8 kts | 321° |
| 2026-04-25 20:34 | 53.35723 | -2.27634 | 258 ft | 13 kts | 338° |
| 2026-04-25 20:35 | 53.35813 | -2.27658 | 258 ft | 12 kts | 6° |
| 2026-04-25 20:35 | 53.35879 | -2.27631 | 258 ft | 9 kts | 43° |
| 2026-04-25 20:35 | 53.35883 | -2.27546 | 258 ft | 6 kts | 97° |